Current Weather

Maradi

Maradi, Niger (DRRM)

Report from: Tuesday, July 16, 2024 10:00 AM WAT
Current time: Tuesday, July 16, 2024 11:20 AM WAT

Nearby weather – Weather history – Daily summaries
Weather forecast

Temperature26.0°C (78.8°F)
Dew point22.0°C (71.6°F)
Winds 6 kts (3.1 m/s, 6.9 mph) East (100°)
Clouds Sky clear
Altimeter30.03 in.Hg (1017 mB)
Relative humidity79 %
Density altitude1,501 ft. (457 m)
Remarks Ceiling and visibility OK
Flight conditions Visual Meteorological Conditions
Raw dataDRRM 160900Z 10006KT CAVOK 26/22 Q1017
An error has occurred. This application may no longer respond until reloaded. Reload 🗙